<?xml version="1.0" encoding="UTF-8" standalone="no" ?>
<gpx xmlns="http://www.topografix.com/GPX/1/1" xmlns:xsi="http://www.w3.org/2001/XMLSchema-instance" xsi:schemaLocation="http://www.topografix.com/GPX/1/1 http://www.topografix.com/GPX/1/1/gpx.xsd" version="1.1" creator="VisuGPX - https://www.visugpx.com">
  <metadata>
    <name>Cantal</name>
  </metadata>
  <trk>
    <name><![CDATA[Vous suivez Bastide Aspre (Cantal)]]></name>
    <extensions>
      <line xmlns="http://www.topografix.com/GPX/gpx_style/0/2">
        <color>0000FF</color>
        <width>4</width>
      </line>
    </extensions>
    <trkseg>
      <trkpt lat="45.10177" lon="2.59457">
        <ele>939</ele>
        <time>2020-09-14T10:08:03Z</time>
      </trkpt>
      <trkpt lat="45.10186" lon="2.59461">
        <ele>938</ele>
        <time>2020-09-14T10:08:14Z</time>
      </trkpt>
      <trkpt lat="45.10193" lon="2.59466">
        <ele>939</ele>
        <time>2020-09-14T10:08:20Z</time>
      </trkpt>
      <trkpt lat="45.10202" lon="2.59463">
        <ele>938</ele>
        <time>2020-09-14T10:08:26Z</time>
      </trkpt>
      <trkpt lat="45.1021" lon="2.59463">
        <ele>938</ele>
        <time>2020-09-14T10:08:33Z</time>
      </trkpt>
      <trkpt lat="45.10218" lon="2.59463">
        <ele>938</ele>
        <time>2020-09-14T10:08:39Z</time>
      </trkpt>
      <trkpt lat="45.10226" lon="2.59465">
        <ele>938</ele>
        <time>2020-09-14T10:08:46Z</time>
      </trkpt>
      <trkpt lat="45.10234" lon="2.59466">
        <ele>938</ele>
        <time>2020-09-14T10:08:53Z</time>
      </trkpt>
      <trkpt lat="45.10242" lon="2.59467">
        <ele>937</ele>
        <time>2020-09-14T10:09:00Z</time>
      </trkpt>
      <trkpt lat="45.10251" lon="2.59468">
        <ele>939</ele>
        <time>2020-09-14T10:09:08Z</time>
      </trkpt>
      <trkpt lat="45.10259" lon="2.59465">
        <ele>940</ele>
        <time>2020-09-14T10:09:14Z</time>
      </trkpt>
      <trkpt lat="45.10265" lon="2.59459">
        <ele>940</ele>
        <time>2020-09-14T10:09:20Z</time>
      </trkpt>
      <trkpt lat="45.10273" lon="2.59456">
        <ele>940</ele>
        <time>2020-09-14T10:09:24Z</time>
      </trkpt>
      <trkpt lat="45.10273" lon="2.59456">
        <ele>940</ele>
        <time>2020-09-14T10:09:25Z</time>
      </trkpt>
      <trkpt lat="45.10275" lon="2.59458">
        <ele>939</ele>
        <time>2020-09-14T10:10:28Z</time>
      </trkpt>
      <trkpt lat="45.10282" lon="2.59451">
        <ele>939</ele>
        <time>2020-09-14T10:10:36Z</time>
      </trkpt>
      <trkpt lat="45.1029" lon="2.59451">
        <ele>940</ele>
        <time>2020-09-14T10:10:43Z</time>
      </trkpt>
      <trkpt lat="45.10296" lon="2.5946">
        <ele>940</ele>
        <time>2020-09-14T10:10:49Z</time>
      </trkpt>
      <trkpt lat="45.103" lon="2.5947">
        <ele>941</ele>
        <time>2020-09-14T10:10:56Z</time>
      </trkpt>
      <trkpt lat="45.10303" lon="2.59481">
        <ele>942</ele>
        <time>2020-09-14T10:11:03Z</time>
      </trkpt>
      <trkpt lat="45.10306" lon="2.59491">
        <ele>944</ele>
        <time>2020-09-14T10:11:09Z</time>
      </trkpt>
      <trkpt lat="45.1031" lon="2.59502">
        <ele>945</ele>
        <time>2020-09-14T10:11:17Z</time>
      </trkpt>
      <trkpt lat="45.10316" lon="2.59511">
        <ele>946</ele>
        <time>2020-09-14T10:11:25Z</time>
      </trkpt>
      <trkpt lat="45.10323" lon="2.59519">
        <ele>948</ele>
        <time>2020-09-14T10:11:33Z</time>
      </trkpt>
      <trkpt lat="45.10329" lon="2.59527">
        <ele>949</ele>
        <time>2020-09-14T10:11:42Z</time>
      </trkpt>
      <trkpt lat="45.10335" lon="2.59536">
        <ele>952</ele>
        <time>2020-09-14T10:11:49Z</time>
      </trkpt>
      <trkpt lat="45.10341" lon="2.59544">
        <ele>954</ele>
        <time>2020-09-14T10:11:55Z</time>
      </trkpt>
      <trkpt lat="45.10348" lon="2.59552">
        <ele>954</ele>
        <time>2020-09-14T10:12:02Z</time>
      </trkpt>
      <trkpt lat="45.10355" lon="2.59557">
        <ele>955</ele>
        <time>2020-09-14T10:12:08Z</time>
      </trkpt>
      <trkpt lat="45.10363" lon="2.59562">
        <ele>955</ele>
        <time>2020-09-14T10:12:15Z</time>
      </trkpt>
      <trkpt lat="45.10372" lon="2.59562">
        <ele>954</ele>
        <time>2020-09-14T10:12:22Z</time>
      </trkpt>
      <trkpt lat="45.10379" lon="2.59563">
        <ele>955</ele>
        <time>2020-09-14T10:12:29Z</time>
      </trkpt>
      <trkpt lat="45.10387" lon="2.59567">
        <ele>957</ele>
        <time>2020-09-14T10:12:35Z</time>
      </trkpt>
      <trkpt lat="45.10394" lon="2.59572">
        <ele>956</ele>
        <time>2020-09-14T10:12:42Z</time>
      </trkpt>
      <trkpt lat="45.10401" lon="2.59578">
        <ele>957</ele>
        <time>2020-09-14T10:12:48Z</time>
      </trkpt>
      <trkpt lat="45.10408" lon="2.59585">
        <ele>956</ele>
        <time>2020-09-14T10:12:56Z</time>
      </trkpt>
      <trkpt lat="45.10415" lon="2.59589">
        <ele>956</ele>
        <time>2020-09-14T10:13:03Z</time>
      </trkpt>
      <trkpt lat="45.10423" lon="2.59593">
        <ele>956</ele>
        <time>2020-09-14T10:13:09Z</time>
      </trkpt>
      <trkpt lat="45.10429" lon="2.59599">
        <ele>956</ele>
        <time>2020-09-14T10:13:15Z</time>
      </trkpt>
      <trkpt lat="45.10434" lon="2.59608">
        <ele>956</ele>
        <time>2020-09-14T10:13:20Z</time>
      </trkpt>
      <trkpt lat="45.10438" lon="2.59619">
        <ele>956</ele>
        <time>2020-09-14T10:13:28Z</time>
      </trkpt>
      <trkpt lat="45.10442" lon="2.59629">
        <ele>957</ele>
        <time>2020-09-14T10:13:34Z</time>
      </trkpt>
      <trkpt lat="45.10446" lon="2.59639">
        <ele>957</ele>
        <time>2020-09-14T10:13:40Z</time>
      </trkpt>
      <trkpt lat="45.10449" lon="2.59651">
        <ele>958</ele>
        <time>2020-09-14T10:13:46Z</time>
      </trkpt>
      <trkpt lat="45.10447" lon="2.59661">
        <ele>958</ele>
        <time>2020-09-14T10:13:52Z</time>
      </trkpt>
      <trkpt lat="45.10445" lon="2.59673">
        <ele>959</ele>
        <time>2020-09-14T10:14:00Z</time>
      </trkpt>
      <trkpt lat="45.10442" lon="2.59684">
        <ele>958</ele>
        <time>2020-09-14T10:14:06Z</time>
      </trkpt>
      <trkpt lat="45.10442" lon="2.59696">
        <ele>957</ele>
        <time>2020-09-14T10:14:13Z</time>
      </trkpt>
      <trkpt lat="45.10445" lon="2.59706">
        <ele>959</ele>
        <time>2020-09-14T10:14:21Z</time>
      </trkpt>
      <trkpt lat="45.10446" lon="2.59718">
        <ele>960</ele>
        <time>2020-09-14T10:14:29Z</time>
      </trkpt>
      <trkpt lat="45.10449" lon="2.5973">
        <ele>962</ele>
        <time>2020-09-14T10:14:37Z</time>
      </trkpt>
      <trkpt lat="45.10453" lon="2.59742">
        <ele>962</ele>
        <time>2020-09-14T10:14:45Z</time>
      </trkpt>
      <trkpt lat="45.10456" lon="2.59753">
        <ele>963</ele>
        <time>2020-09-14T10:14:54Z</time>
      </trkpt>
      <trkpt lat="45.10459" lon="2.59764">
        <ele>965</ele>
        <time>2020-09-14T10:15:03Z</time>
      </trkpt>
      <trkpt lat="45.10461" lon="2.59776">
        <ele>966</ele>
        <time>2020-09-14T10:15:11Z</time>
      </trkpt>
      <trkpt lat="45.10461" lon="2.59788">
        <ele>968</ele>
        <time>2020-09-14T10:15:21Z</time>
      </trkpt>
      <trkpt lat="45.10463" lon="2.598">
        <ele>971</ele>
        <time>2020-09-14T10:15:30Z</time>
      </trkpt>
      <trkpt lat="45.10466" lon="2.59811">
        <ele>972</ele>
        <time>2020-09-14T10:15:38Z</time>
      </trkpt>
      <trkpt lat="45.1047" lon="2.59822">
        <ele>973</ele>
        <time>2020-09-14T10:15:46Z</time>
      </trkpt>
      <trkpt lat="45.10476" lon="2.59831">
        <ele>974</ele>
        <time>2020-09-14T10:15:55Z</time>
      </trkpt>
      <trkpt lat="45.10479" lon="2.59842">
        <ele>974</ele>
        <time>2020-09-14T10:16:04Z</time>
      </trkpt>
      <trkpt lat="45.10484" lon="2.59851">
        <ele>975</ele>
        <time>2020-09-14T10:16:12Z</time>
      </trkpt>
      <trkpt lat="45.10488" lon="2.59862">
        <ele>977</ele>
        <time>2020-09-14T10:16:22Z</time>
      </trkpt>
      <trkpt lat="45.10493" lon="2.5987">
        <ele>978</ele>
        <time>2020-09-14T10:16:28Z</time>
      </trkpt>
      <trkpt lat="45.10498" lon="2.5988">
        <ele>978</ele>
        <time>2020-09-14T10:16:35Z</time>
      </trkpt>
      <trkpt lat="45.10503" lon="2.5989">
        <ele>978</ele>
        <time>2020-09-14T10:16:43Z</time>
      </trkpt>
      <trkpt lat="45.10507" lon="2.59901">
        <ele>977</ele>
        <time>2020-09-14T10:16:51Z</time>
      </trkpt>
      <trkpt lat="45.10511" lon="2.59912">
        <ele>977</ele>
        <time>2020-09-14T10:16:59Z</time>
      </trkpt>
      <trkpt lat="45.10516" lon="2.59921">
        <ele>978</ele>
        <time>2020-09-14T10:17:07Z</time>
      </trkpt>
      <trkpt lat="45.10521" lon="2.59931">
        <ele>979</ele>
        <time>2020-09-14T10:17:15Z</time>
      </trkpt>
      <trkpt lat="45.10526" lon="2.5994">
        <ele>980</ele>
        <time>2020-09-14T10:17:22Z</time>
      </trkpt>
      <trkpt lat="45.10531" lon="2.59949">
        <ele>980</ele>
        <time>2020-09-14T10:17:30Z</time>
      </trkpt>
      <trkpt lat="45.10537" lon="2.59956">
        <ele>981</ele>
        <time>2020-09-14T10:17:38Z</time>
      </trkpt>
      <trkpt lat="45.10543" lon="2.59965">
        <ele>982</ele>
        <time>2020-09-14T10:17:45Z</time>
      </trkpt>
      <trkpt lat="45.10549" lon="2.59974">
        <ele>984</ele>
        <time>2020-09-14T10:17:52Z</time>
      </trkpt>
      <trkpt lat="45.10554" lon="2.59983">
        <ele>984</ele>
        <time>2020-09-14T10:18:00Z</time>
      </trkpt>
      <trkpt lat="45.10561" lon="2.59991">
        <ele>984</ele>
        <time>2020-09-14T10:18:08Z</time>
      </trkpt>
      <trkpt lat="45.10567" lon="2.59998">
        <ele>985</ele>
        <time>2020-09-14T10:18:15Z</time>
      </trkpt>
      <trkpt lat="45.10572" lon="2.60007">
        <ele>986</ele>
        <time>2020-09-14T10:18:24Z</time>
      </trkpt>
      <trkpt lat="45.10577" lon="2.60016">
        <ele>987</ele>
        <time>2020-09-14T10:18:33Z</time>
      </trkpt>
      <trkpt lat="45.10584" lon="2.60024">
        <ele>988</ele>
        <time>2020-09-14T10:18:41Z</time>
      </trkpt>
      <trkpt lat="45.1059" lon="2.60032">
        <ele>989</ele>
        <time>2020-09-14T10:18:49Z</time>
      </trkpt>
      <trkpt lat="45.10597" lon="2.6004">
        <ele>992</ele>
        <time>2020-09-14T10:18:57Z</time>
      </trkpt>
      <trkpt lat="45.10603" lon="2.60049">
        <ele>993</ele>
        <time>2020-09-14T10:19:05Z</time>
      </trkpt>
      <trkpt lat="45.10608" lon="2.60058">
        <ele>994</ele>
        <time>2020-09-14T10:19:12Z</time>
      </trkpt>
      <trkpt lat="45.10612" lon="2.60068">
        <ele>997</ele>
        <time>2020-09-14T10:19:20Z</time>
      </trkpt>
      <trkpt lat="45.10617" lon="2.60078">
        <ele>997</ele>
        <time>2020-09-14T10:19:29Z</time>
      </trkpt>
      <trkpt lat="45.10622" lon="2.60087">
        <ele>999</ele>
        <time>2020-09-14T10:19:38Z</time>
      </trkpt>
      <trkpt lat="45.10626" lon="2.60098">
        <ele>1000</ele>
        <time>2020-09-14T10:19:45Z</time>
      </trkpt>
      <trkpt lat="45.1063" lon="2.60109">
        <ele>1002</ele>
        <time>2020-09-14T10:19:54Z</time>
      </trkpt>
      <trkpt lat="45.10634" lon="2.6012">
        <ele>1003</ele>
        <time>2020-09-14T10:20:02Z</time>
      </trkpt>
      <trkpt lat="45.10639" lon="2.60131">
        <ele>1005</ele>
        <time>2020-09-14T10:20:11Z</time>
      </trkpt>
      <trkpt lat="45.10645" lon="2.60139">
        <ele>1007</ele>
        <time>2020-09-14T10:20:22Z</time>
      </trkpt>
      <trkpt lat="45.10651" lon="2.60148">
        <ele>1007</ele>
        <time>2020-09-14T10:20:31Z</time>
      </trkpt>
      <trkpt lat="45.1066" lon="2.60145">
        <ele>1006</ele>
        <time>2020-09-14T10:20:45Z</time>
      </trkpt>
      <trkpt lat="45.10667" lon="2.60142">
        <ele>1006</ele>
        <time>2020-09-14T10:20:52Z</time>
      </trkpt>
      <trkpt lat="45.10676" lon="2.60141">
        <ele>1007</ele>
        <time>2020-09-14T10:20:59Z</time>
      </trkpt>
      <trkpt lat="45.10683" lon="2.60139">
        <ele>1007</ele>
        <time>2020-09-14T10:21:06Z</time>
      </trkpt>
      <trkpt lat="45.10691" lon="2.60135">
        <ele>1004</ele>
        <time>2020-09-14T10:21:12Z</time>
      </trkpt>
      <trkpt lat="45.10698" lon="2.6013">
        <ele>1001</ele>
        <time>2020-09-14T10:21:18Z</time>
      </trkpt>
      <trkpt lat="45.10706" lon="2.60124">
        <ele>999</ele>
        <time>2020-09-14T10:21:26Z</time>
      </trkpt>
      <trkpt lat="45.10714" lon="2.60125">
        <ele>999</ele>
        <time>2020-09-14T10:21:34Z</time>
      </trkpt>
      <trkpt lat="45.10722" lon="2.60127">
        <ele>999</ele>
        <time>2020-09-14T10:21:43Z</time>
      </trkpt>
      <trkpt lat="45.1073" lon="2.60125">
        <ele>1000</ele>
        <time>2020-09-14T10:21:51Z</time>
      </trkpt>
      <trkpt lat="45.10737" lon="2.60126">
        <ele>1002</ele>
        <time>2020-09-14T10:21:57Z</time>
      </trkpt>
      <trkpt lat="45.10745" lon="2.60129">
        <ele>1000</ele>
        <time>2020-09-14T10:22:03Z</time>
      </trkpt>
      <trkpt lat="45.10754" lon="2.60127">
        <ele>999</ele>
        <time>2020-09-14T10:22:19Z</time>
      </trkpt>
      <trkpt lat="45.10762" lon="2.60125">
        <ele>1000</ele>
        <time>2020-09-14T10:22:24Z</time>
      </trkpt>
      <trkpt lat="45.1077" lon="2.60124">
        <ele>1002</ele>
        <time>2020-09-14T10:22:31Z</time>
      </trkpt>
      <trkpt lat="45.10777" lon="2.60121">
        <ele>1001</ele>
        <time>2020-09-14T10:22:36Z</time>
      </trkpt>
      <trkpt lat="45.10785" lon="2.60124">
        <ele>1001</ele>
        <time>2020-09-14T10:22:42Z</time>
      </trkpt>
      <trkpt lat="45.10792" lon="2.60132">
        <ele>1005</ele>
        <time>2020-09-14T10:22:51Z</time>
      </trkpt>
      <trkpt lat="45.108" lon="2.60135">
        <ele>1006</ele>
        <time>2020-09-14T10:22:59Z</time>
      </trkpt>
      <trkpt lat="45.10807" lon="2.60142">
        <ele>1006</ele>
        <time>2020-09-14T10:23:05Z</time>
      </trkpt>
      <trkpt lat="45.10812" lon="2.60152">
        <ele>1007</ele>
        <time>2020-09-14T10:23:10Z</time>
      </trkpt>
      <trkpt lat="45.1082" lon="2.60158">
        <ele>1005</ele>
        <time>2020-09-14T10:23:16Z</time>
      </trkpt>
      <trkpt lat="45.10826" lon="2.60167">
        <ele>1005</ele>
        <time>2020-09-14T10:23:23Z</time>
      </trkpt>
      <trkpt lat="45.10834" lon="2.6017">
        <ele>1005</ele>
        <time>2020-09-14T10:23:34Z</time>
      </trkpt>
      <trkpt lat="45.10842" lon="2.60166">
        <ele>1005</ele>
        <time>2020-09-14T10:23:41Z</time>
      </trkpt>
      <trkpt lat="45.1085" lon="2.60163">
        <ele>1007</ele>
        <time>2020-09-14T10:23:48Z</time>
      </trkpt>
      <trkpt lat="45.10855" lon="2.60154">
        <ele>1004</ele>
        <time>2020-09-14T10:23:55Z</time>
      </trkpt>
      <trkpt lat="45.10861" lon="2.6015">
        <ele>1003</ele>
        <time>2020-09-14T10:24:05Z</time>
      </trkpt>
      <trkpt lat="45.10869" lon="2.60143">
        <ele>1000</ele>
        <time>2020-09-14T10:24:25Z</time>
      </trkpt>
      <trkpt lat="45.10869" lon="2.60143">
        <ele>1000</ele>
        <time>2020-09-14T10:24:25Z</time>
      </trkpt>
      <trkpt lat="45.10864" lon="2.60135">
        <ele>1005</ele>
        <time>2020-09-14T10:54:25Z</time>
      </trkpt>
      <trkpt lat="45.10866" lon="2.60147">
        <ele>998</ele>
        <time>2020-09-14T10:54:42Z</time>
      </trkpt>
      <trkpt lat="45.10866" lon="2.60153">
        <ele>999</ele>
        <time>2020-09-14T10:54:49Z</time>
      </trkpt>
      <trkpt lat="45.10866" lon="2.60153">
        <ele>999</ele>
        <time>2020-09-14T10:54:50Z</time>
      </trkpt>
      <trkpt lat="45.10865" lon="2.60155">
        <ele>1001</ele>
        <time>2020-09-14T10:54:54Z</time>
      </trkpt>
      <trkpt lat="45.10859" lon="2.60165">
        <ele>1004</ele>
        <time>2020-09-14T10:55:35Z</time>
      </trkpt>
      <trkpt lat="45.10851" lon="2.60168">
        <ele>1005</ele>
        <time>2020-09-14T10:55:44Z</time>
      </trkpt>
      <trkpt lat="45.10843" lon="2.60173">
        <ele>1007</ele>
        <time>2020-09-14T10:55:52Z</time>
      </trkpt>
      <trkpt lat="45.10835" lon="2.60171">
        <ele>1006</ele>
        <time>2020-09-14T10:56:02Z</time>
      </trkpt>
      <trkpt lat="45.10831" lon="2.6016">
        <ele>1005</ele>
        <time>2020-09-14T10:56:09Z</time>
      </trkpt>
      <trkpt lat="45.10824" lon="2.60155">
        <ele>1004</ele>
        <time>2020-09-14T10:56:17Z</time>
      </trkpt>
      <trkpt lat="45.10817" lon="2.60154">
        <ele>1004</ele>
        <time>2020-09-14T10:56:28Z</time>
      </trkpt>
      <trkpt lat="45.10812" lon="2.60146">
        <ele>1006</ele>
        <time>2020-09-14T10:56:35Z</time>
      </trkpt>
      <trkpt lat="45.10805" lon="2.60139">
        <ele>1006</ele>
        <time>2020-09-14T10:56:42Z</time>
      </trkpt>
      <trkpt lat="45.10798" lon="2.60135">
        <ele>1005</ele>
        <time>2020-09-14T10:56:49Z</time>
      </trkpt>
      <trkpt lat="45.1079" lon="2.60129">
        <ele>1006</ele>
        <time>2020-09-14T10:56:55Z</time>
      </trkpt>
      <trkpt lat="45.10781" lon="2.60128">
        <ele>1007</ele>
        <time>2020-09-14T10:57:02Z</time>
      </trkpt>
      <trkpt lat="45.10774" lon="2.60132">
        <ele>1006</ele>
        <time>2020-09-14T10:57:12Z</time>
      </trkpt>
      <trkpt lat="45.10766" lon="2.60131">
        <ele>1004</ele>
        <time>2020-09-14T10:57:19Z</time>
      </trkpt>
      <trkpt lat="45.10758" lon="2.60132">
        <ele>1003</ele>
        <time>2020-09-14T10:57:28Z</time>
      </trkpt>
      <trkpt lat="45.10749" lon="2.6013">
        <ele>1005</ele>
        <time>2020-09-14T10:57:39Z</time>
      </trkpt>
      <trkpt lat="45.10742" lon="2.60125">
        <ele>1005</ele>
        <time>2020-09-14T10:57:48Z</time>
      </trkpt>
      <trkpt lat="45.10733" lon="2.60122">
        <ele>1006</ele>
        <time>2020-09-14T10:57:56Z</time>
      </trkpt>
      <trkpt lat="45.10725" lon="2.60122">
        <ele>1005</ele>
        <time>2020-09-14T10:58:03Z</time>
      </trkpt>
      <trkpt lat="45.10716" lon="2.60123">
        <ele>1005</ele>
        <time>2020-09-14T10:58:11Z</time>
      </trkpt>
      <trkpt lat="45.10708" lon="2.60126">
        <ele>1005</ele>
        <time>2020-09-14T10:58:18Z</time>
      </trkpt>
      <trkpt lat="45.107" lon="2.6013">
        <ele>1003</ele>
        <time>2020-09-14T10:58:26Z</time>
      </trkpt>
      <trkpt lat="45.10693" lon="2.60134">
        <ele>1003</ele>
        <time>2020-09-14T10:58:34Z</time>
      </trkpt>
      <trkpt lat="45.10685" lon="2.60135">
        <ele>1002</ele>
        <time>2020-09-14T10:58:39Z</time>
      </trkpt>
      <trkpt lat="45.10677" lon="2.60139">
        <ele>1003</ele>
        <time>2020-09-14T10:58:46Z</time>
      </trkpt>
      <trkpt lat="45.10669" lon="2.60145">
        <ele>1005</ele>
        <time>2020-09-14T10:58:56Z</time>
      </trkpt>
      <trkpt lat="45.10661" lon="2.60148">
        <ele>1007</ele>
        <time>2020-09-14T10:59:05Z</time>
      </trkpt>
      <trkpt lat="45.10659" lon="2.60154">
        <ele>1007</ele>
        <time>2020-09-14T10:59:15Z</time>
      </trkpt>
      <trkpt lat="45.10659" lon="2.60154">
        <ele>1007</ele>
        <time>2020-09-14T10:59:15Z</time>
      </trkpt>
      <trkpt lat="45.10655" lon="2.60154">
        <ele>1008</ele>
        <time>2020-09-14T10:59:40Z</time>
      </trkpt>
      <trkpt lat="45.10663" lon="2.60153">
        <ele>1004</ele>
        <time>2020-09-14T10:59:50Z</time>
      </trkpt>
      <trkpt lat="45.10671" lon="2.60154">
        <ele>1004</ele>
        <time>2020-09-14T10:59:57Z</time>
      </trkpt>
      <trkpt lat="45.1068" lon="2.60157">
        <ele>1003</ele>
        <time>2020-09-14T11:00:06Z</time>
      </trkpt>
      <trkpt lat="45.10688" lon="2.6016">
        <ele>1003</ele>
        <time>2020-09-14T11:00:14Z</time>
      </trkpt>
      <trkpt lat="45.10696" lon="2.60163">
        <ele>1005</ele>
        <time>2020-09-14T11:00:22Z</time>
      </trkpt>
      <trkpt lat="45.10704" lon="2.60165">
        <ele>1006</ele>
        <time>2020-09-14T11:00:30Z</time>
      </trkpt>
      <trkpt lat="45.10712" lon="2.60165">
        <ele>1007</ele>
        <time>2020-09-14T11:00:38Z</time>
      </trkpt>
      <trkpt lat="45.1072" lon="2.60166">
        <ele>1009</ele>
        <time>2020-09-14T11:00:48Z</time>
      </trkpt>
      <trkpt lat="45.10728" lon="2.60168">
        <ele>1009</ele>
        <time>2020-09-14T11:00:57Z</time>
      </trkpt>
      <trkpt lat="45.10737" lon="2.60171">
        <ele>1012</ele>
        <time>2020-09-14T11:01:04Z</time>
      </trkpt>
      <trkpt lat="45.10744" lon="2.60176">
        <ele>1012</ele>
        <time>2020-09-14T11:01:13Z</time>
      </trkpt>
      <trkpt lat="45.1075" lon="2.60183">
        <ele>1014</ele>
        <time>2020-09-14T11:01:22Z</time>
      </trkpt>
      <trkpt lat="45.10756" lon="2.60191">
        <ele>1015</ele>
        <time>2020-09-14T11:01:31Z</time>
      </trkpt>
      <trkpt lat="45.10764" lon="2.60196">
        <ele>1016</ele>
        <time>2020-09-14T11:01:39Z</time>
      </trkpt>
      <trkpt lat="45.10771" lon="2.60201">
        <ele>1017</ele>
        <time>2020-09-14T11:01:48Z</time>
      </trkpt>
      <trkpt lat="45.10778" lon="2.6021">
        <ele>1016</ele>
        <time>2020-09-14T11:01:58Z</time>
      </trkpt>
      <trkpt lat="45.10786" lon="2.60215">
        <ele>1017</ele>
        <time>2020-09-14T11:02:09Z</time>
      </trkpt>
      <trkpt lat="45.10793" lon="2.60221">
        <ele>1018</ele>
        <time>2020-09-14T11:02:18Z</time>
      </trkpt>
      <trkpt lat="45.108" lon="2.60229">
        <ele>1020</ele>
        <time>2020-09-14T11:02:29Z</time>
      </trkpt>
      <trkpt lat="45.10806" lon="2.60236">
        <ele>1021</ele>
        <time>2020-09-14T11:02:38Z</time>
      </trkpt>
      <trkpt lat="45.10813" lon="2.60242">
        <ele>1022</ele>
        <time>2020-09-14T11:02:49Z</time>
      </trkpt>
      <trkpt lat="45.10818" lon="2.6025">
        <ele>1025</ele>
        <time>2020-09-14T11:02:58Z</time>
      </trkpt>
      <trkpt lat="45.10826" lon="2.60256">
        <ele>1025</ele>
        <time>2020-09-14T11:03:07Z</time>
      </trkpt>
      <trkpt lat="45.10834" lon="2.60261">
        <ele>1029</ele>
        <time>2020-09-14T11:03:21Z</time>
      </trkpt>
      <trkpt lat="45.10842" lon="2.60264">
        <ele>1031</ele>
        <time>2020-09-14T11:03:33Z</time>
      </trkpt>
      <trkpt lat="45.10849" lon="2.60271">
        <ele>1035</ele>
        <time>2020-09-14T11:03:46Z</time>
      </trkpt>
      <trkpt lat="45.10857" lon="2.60275">
        <ele>1036</ele>
        <time>2020-09-14T11:03:55Z</time>
      </trkpt>
      <trkpt lat="45.10864" lon="2.60281">
        <ele>1034</ele>
        <time>2020-09-14T11:04:05Z</time>
      </trkpt>
      <trkpt lat="45.10872" lon="2.60286">
        <ele>1034</ele>
        <time>2020-09-14T11:04:12Z</time>
      </trkpt>
      <trkpt lat="45.1088" lon="2.6029">
        <ele>1037</ele>
        <time>2020-09-14T11:04:23Z</time>
      </trkpt>
      <trkpt lat="45.10886" lon="2.60298">
        <ele>1039</ele>
        <time>2020-09-14T11:04:34Z</time>
      </trkpt>
      <trkpt lat="45.10892" lon="2.60305">
        <ele>1040</ele>
        <time>2020-09-14T11:04:42Z</time>
      </trkpt>
      <trkpt lat="45.10899" lon="2.60312">
        <ele>1041</ele>
        <time>2020-09-14T11:04:49Z</time>
      </trkpt>
      <trkpt lat="45.10904" lon="2.60321">
        <ele>1042</ele>
        <time>2020-09-14T11:04:55Z</time>
      </trkpt>
      <trkpt lat="45.10912" lon="2.60327">
        <ele>1043</ele>
        <time>2020-09-14T11:05:03Z</time>
      </trkpt>
      <trkpt lat="45.10917" lon="2.60337">
        <ele>1042</ele>
        <time>2020-09-14T11:05:14Z</time>
      </trkpt>
      <trkpt lat="45.10925" lon="2.60343">
        <ele>1046</ele>
        <time>2020-09-14T11:05:23Z</time>
      </trkpt>
      <trkpt lat="45.1093" lon="2.60353">
        <ele>1044</ele>
        <time>2020-09-14T11:05:31Z</time>
      </trkpt>
      <trkpt lat="45.10935" lon="2.60363">
        <ele>1046</ele>
        <time>2020-09-14T11:05:42Z</time>
      </trkpt>
      <trkpt lat="45.1094" lon="2.60372">
        <ele>1046</ele>
        <time>2020-09-14T11:05:51Z</time>
      </trkpt>
      <trkpt lat="45.10944" lon="2.60383">
        <ele>1047</ele>
        <time>2020-09-14T11:05:59Z</time>
      </trkpt>
      <trkpt lat="45.10951" lon="2.6039">
        <ele>1048</ele>
        <time>2020-09-14T11:06:06Z</time>
      </trkpt>
      <trkpt lat="45.1096" lon="2.60394">
        <ele>1048</ele>
        <time>2020-09-14T11:06:14Z</time>
      </trkpt>
      <trkpt lat="45.10966" lon="2.60399">
        <ele>1048</ele>
        <time>2020-09-14T11:06:20Z</time>
      </trkpt>
      <trkpt lat="45.10973" lon="2.60405">
        <ele>1047</ele>
        <time>2020-09-14T11:06:29Z</time>
      </trkpt>
      <trkpt lat="45.10979" lon="2.60412">
        <ele>1047</ele>
        <time>2020-09-14T11:06:39Z</time>
      </trkpt>
      <trkpt lat="45.10985" lon="2.60419">
        <ele>1047</ele>
        <time>2020-09-14T11:06:46Z</time>
      </trkpt>
      <trkpt lat="45.10991" lon="2.60429">
        <ele>1048</ele>
        <time>2020-09-14T11:06:54Z</time>
      </trkpt>
      <trkpt lat="45.10997" lon="2.60436">
        <ele>1046</ele>
        <time>2020-09-14T11:07:01Z</time>
      </trkpt>
      <trkpt lat="45.11004" lon="2.60444">
        <ele>1048</ele>
        <time>2020-09-14T11:07:09Z</time>
      </trkpt>
      <trkpt lat="45.11008" lon="2.60454">
        <ele>1049</ele>
        <time>2020-09-14T11:07:18Z</time>
      </trkpt>
      <trkpt lat="45.11014" lon="2.60464">
        <ele>1051</ele>
        <time>2020-09-14T11:07:27Z</time>
      </trkpt>
      <trkpt lat="45.1102" lon="2.60473">
        <ele>1051</ele>
        <time>2020-09-14T11:07:36Z</time>
      </trkpt>
      <trkpt lat="45.11021" lon="2.60484">
        <ele>1052</ele>
        <time>2020-09-14T11:07:46Z</time>
      </trkpt>
      <trkpt lat="45.11028" lon="2.60492">
        <ele>1054</ele>
        <time>2020-09-14T11:07:56Z</time>
      </trkpt>
      <trkpt lat="45.11035" lon="2.60498">
        <ele>1056</ele>
        <time>2020-09-14T11:08:05Z</time>
      </trkpt>
      <trkpt lat="45.11043" lon="2.60503">
        <ele>1057</ele>
        <time>2020-09-14T11:08:14Z</time>
      </trkpt>
      <trkpt lat="45.1105" lon="2.60509">
        <ele>1057</ele>
        <time>2020-09-14T11:08:21Z</time>
      </trkpt>
      <trkpt lat="45.11053" lon="2.6052">
        <ele>1057</ele>
        <time>2020-09-14T11:08:30Z</time>
      </trkpt>
      <trkpt lat="45.11057" lon="2.60531">
        <ele>1058</ele>
        <time>2020-09-14T11:08:39Z</time>
      </trkpt>
      <trkpt lat="45.11063" lon="2.60539">
        <ele>1061</ele>
        <time>2020-09-14T11:08:49Z</time>
      </trkpt>
      <trkpt lat="45.11063" lon="2.60551">
        <ele>1062</ele>
        <time>2020-09-14T11:08:57Z</time>
      </trkpt>
      <trkpt lat="45.11071" lon="2.6055">
        <ele>1065</ele>
        <time>2020-09-14T11:09:06Z</time>
      </trkpt>
      <trkpt lat="45.11079" lon="2.60553">
        <ele>1065</ele>
        <time>2020-09-14T11:09:14Z</time>
      </trkpt>
      <trkpt lat="45.11087" lon="2.60557">
        <ele>1064</ele>
        <time>2020-09-14T11:09:19Z</time>
      </trkpt>
      <trkpt lat="45.11096" lon="2.6056">
        <ele>1064</ele>
        <time>2020-09-14T11:09:25Z</time>
      </trkpt>
      <trkpt lat="45.11102" lon="2.60568">
        <ele>1064</ele>
        <time>2020-09-14T11:09:33Z</time>
      </trkpt>
      <trkpt lat="45.1111" lon="2.60575">
        <ele>1064</ele>
        <time>2020-09-14T11:09:40Z</time>
      </trkpt>
      <trkpt lat="45.11112" lon="2.60586">
        <ele>1063</ele>
        <time>2020-09-14T11:09:47Z</time>
      </trkpt>
      <trkpt lat="45.11118" lon="2.60594">
        <ele>1063</ele>
        <time>2020-09-14T11:09:55Z</time>
      </trkpt>
      <trkpt lat="45.11117" lon="2.60606">
        <ele>1064</ele>
        <time>2020-09-14T11:10:01Z</time>
      </trkpt>
      <trkpt lat="45.11121" lon="2.60617">
        <ele>1064</ele>
        <time>2020-09-14T11:10:11Z</time>
      </trkpt>
      <trkpt lat="45.11125" lon="2.60627">
        <ele>1063</ele>
        <time>2020-09-14T11:10:18Z</time>
      </trkpt>
      <trkpt lat="45.11132" lon="2.60635">
        <ele>1065</ele>
        <time>2020-09-14T11:10:26Z</time>
      </trkpt>
      <trkpt lat="45.11136" lon="2.60645">
        <ele>1065</ele>
        <time>2020-09-14T11:10:34Z</time>
      </trkpt>
      <trkpt lat="45.11139" lon="2.60656">
        <ele>1066</ele>
        <time>2020-09-14T11:10:43Z</time>
      </trkpt>
      <trkpt lat="45.11142" lon="2.60668">
        <ele>1069</ele>
        <time>2020-09-14T11:10:51Z</time>
      </trkpt>
      <trkpt lat="45.11143" lon="2.60679">
        <ele>1070</ele>
        <time>2020-09-14T11:10:59Z</time>
      </trkpt>
      <trkpt lat="45.11145" lon="2.60691">
        <ele>1069</ele>
        <time>2020-09-14T11:11:07Z</time>
      </trkpt>
      <trkpt lat="45.1115" lon="2.60702">
        <ele>1069</ele>
        <time>2020-09-14T11:11:15Z</time>
      </trkpt>
      <trkpt lat="45.11155" lon="2.60712">
        <ele>1068</ele>
        <time>2020-09-14T11:11:25Z</time>
      </trkpt>
      <trkpt lat="45.1115" lon="2.60702">
        <ele>1070</ele>
        <time>2020-09-14T11:11:47Z</time>
      </trkpt>
      <trkpt lat="45.11146" lon="2.60693">
        <ele>1071</ele>
        <time>2020-09-14T11:11:54Z</time>
      </trkpt>
      <trkpt lat="45.11142" lon="2.60682">
        <ele>1072</ele>
        <time>2020-09-14T11:12:00Z</time>
      </trkpt>
      <trkpt lat="45.11138" lon="2.60672">
        <ele>1072</ele>
        <time>2020-09-14T11:12:07Z</time>
      </trkpt>
      <trkpt lat="45.11136" lon="2.60662">
        <ele>1072</ele>
        <time>2020-09-14T11:12:14Z</time>
      </trkpt>
      <trkpt lat="45.11131" lon="2.60653">
        <ele>1074</ele>
        <time>2020-09-14T11:12:20Z</time>
      </trkpt>
      <trkpt lat="45.11127" lon="2.60642">
        <ele>1075</ele>
        <time>2020-09-14T11:12:28Z</time>
      </trkpt>
      <trkpt lat="45.11126" lon="2.6063">
        <ele>1074</ele>
        <time>2020-09-14T11:12:34Z</time>
      </trkpt>
      <trkpt lat="45.11121" lon="2.60621">
        <ele>1074</ele>
        <time>2020-09-14T11:12:40Z</time>
      </trkpt>
      <trkpt lat="45.11117" lon="2.60611">
        <ele>1073</ele>
        <time>2020-09-14T11:12:46Z</time>
      </trkpt>
      <trkpt lat="45.11113" lon="2.60602">
        <ele>1074</ele>
        <time>2020-09-14T11:12:53Z</time>
      </trkpt>
      <trkpt lat="45.1111" lon="2.6059">
        <ele>1075</ele>
        <time>2020-09-14T11:13:00Z</time>
      </trkpt>
      <trkpt lat="45.11106" lon="2.6058">
        <ele>1076</ele>
        <time>2020-09-14T11:13:07Z</time>
      </trkpt>
      <trkpt lat="45.11101" lon="2.6057">
        <ele>1076</ele>
        <time>2020-09-14T11:13:16Z</time>
      </trkpt>
      <trkpt lat="45.11093" lon="2.60564">
        <ele>1076</ele>
        <time>2020-09-14T11:13:24Z</time>
      </trkpt>
      <trkpt lat="45.11086" lon="2.6056">
        <ele>1077</ele>
        <time>2020-09-14T11:13:31Z</time>
      </trkpt>
      <trkpt lat="45.11077" lon="2.60558">
        <ele>1077</ele>
        <time>2020-09-14T11:13:38Z</time>
      </trkpt>
      <trkpt lat="45.1107" lon="2.60553">
        <ele>1078</ele>
        <time>2020-09-14T11:13:46Z</time>
      </trkpt>
      <trkpt lat="45.11066" lon="2.60564">
        <ele>1076</ele>
        <time>2020-09-14T11:14:00Z</time>
      </trkpt>
      <trkpt lat="45.11071" lon="2.60575">
        <ele>1069</ele>
        <time>2020-09-14T11:14:15Z</time>
      </trkpt>
      <trkpt lat="45.11075" lon="2.60585">
        <ele>1070</ele>
        <time>2020-09-14T11:14:25Z</time>
      </trkpt>
      <trkpt lat="45.11078" lon="2.60597">
        <ele>1069</ele>
        <time>2020-09-14T11:14:37Z</time>
      </trkpt>
      <trkpt lat="45.11083" lon="2.60607">
        <ele>1068</ele>
        <time>2020-09-14T11:14:48Z</time>
      </trkpt>
      <trkpt lat="45.11086" lon="2.60617">
        <ele>1068</ele>
        <time>2020-09-14T11:14:57Z</time>
      </trkpt>
      <trkpt lat="45.11084" lon="2.60629">
        <ele>1070</ele>
        <time>2020-09-14T11:15:06Z</time>
      </trkpt>
      <trkpt lat="45.11087" lon="2.6064">
        <ele>1073</ele>
        <time>2020-09-14T11:15:13Z</time>
      </trkpt>
      <trkpt lat="45.11088" lon="2.60652">
        <ele>1074</ele>
        <time>2020-09-14T11:15:20Z</time>
      </trkpt>
      <trkpt lat="45.11091" lon="2.60663">
        <ele>1077</ele>
        <time>2020-09-14T11:15:31Z</time>
      </trkpt>
      <trkpt lat="45.11095" lon="2.60674">
        <ele>1079</ele>
        <time>2020-09-14T11:15:41Z</time>
      </trkpt>
      <trkpt lat="45.11097" lon="2.60685">
        <ele>1081</ele>
        <time>2020-09-14T11:15:52Z</time>
      </trkpt>
      <trkpt lat="45.11103" lon="2.60694">
        <ele>1081</ele>
        <time>2020-09-14T11:16:00Z</time>
      </trkpt>
      <trkpt lat="45.11108" lon="2.60703">
        <ele>1080</ele>
        <time>2020-09-14T11:16:08Z</time>
      </trkpt>
      <trkpt lat="45.1111" lon="2.60715">
        <ele>1081</ele>
        <time>2020-09-14T11:16:15Z</time>
      </trkpt>
      <trkpt lat="45.11108" lon="2.60727">
        <ele>1079</ele>
        <time>2020-09-14T11:16:25Z</time>
      </trkpt>
      <trkpt lat="45.11113" lon="2.60738">
        <ele>1079</ele>
        <time>2020-09-14T11:16:37Z</time>
      </trkpt>
      <trkpt lat="45.11115" lon="2.60749">
        <ele>1081</ele>
        <time>2020-09-14T11:16:47Z</time>
      </trkpt>
      <trkpt lat="45.11116" lon="2.60762">
        <ele>1082</ele>
        <time>2020-09-14T11:16:58Z</time>
      </trkpt>
      <trkpt lat="45.11116" lon="2.60773">
        <ele>1082</ele>
        <time>2020-09-14T11:17:04Z</time>
      </trkpt>
      <trkpt lat="45.11119" lon="2.60783">
        <ele>1083</ele>
        <time>2020-09-14T11:17:12Z</time>
      </trkpt>
      <trkpt lat="45.11121" lon="2.60795">
        <ele>1085</ele>
        <time>2020-09-14T11:17:23Z</time>
      </trkpt>
      <trkpt lat="45.11126" lon="2.60804">
        <ele>1087</ele>
        <time>2020-09-14T11:17:32Z</time>
      </trkpt>
      <trkpt lat="45.11127" lon="2.60815">
        <ele>1087</ele>
        <time>2020-09-14T11:17:40Z</time>
      </trkpt>
      <trkpt lat="45.11128" lon="2.60827">
        <ele>1087</ele>
        <time>2020-09-14T11:17:47Z</time>
      </trkpt>
      <trkpt lat="45.11131" lon="2.60839">
        <ele>1088</ele>
        <time>2020-09-14T11:17:58Z</time>
      </trkpt>
      <trkpt lat="45.11136" lon="2.60848">
        <ele>1091</ele>
        <time>2020-09-14T11:18:07Z</time>
      </trkpt>
      <trkpt lat="45.11141" lon="2.60858">
        <ele>1093</ele>
        <time>2020-09-14T11:18:17Z</time>
      </trkpt>
      <trkpt lat="45.11147" lon="2.60865">
        <ele>1092</ele>
        <time>2020-09-14T11:18:24Z</time>
      </trkpt>
      <trkpt lat="45.11151" lon="2.60876">
        <ele>1091</ele>
        <time>2020-09-14T11:18:31Z</time>
      </trkpt>
      <trkpt lat="45.11152" lon="2.60886">
        <ele>1091</ele>
        <time>2020-09-14T11:18:38Z</time>
      </trkpt>
      <trkpt lat="45.11151" lon="2.60896">
        <ele>1092</ele>
        <time>2020-09-14T11:18:44Z</time>
      </trkpt>
      <trkpt lat="45.11154" lon="2.60907">
        <ele>1094</ele>
        <time>2020-09-14T11:18:54Z</time>
      </trkpt>
      <trkpt lat="45.11156" lon="2.60919">
        <ele>1095</ele>
        <time>2020-09-14T11:19:03Z</time>
      </trkpt>
      <trkpt lat="45.11157" lon="2.60928">
        <ele>1096</ele>
        <time>2020-09-14T11:19:11Z</time>
      </trkpt>
      <trkpt lat="45.11157" lon="2.60928">
        <ele>1096</ele>
        <time>2020-09-14T11:19:12Z</time>
      </trkpt>
      <trkpt lat="45.11155" lon="2.60938">
        <ele>1102</ele>
        <time>2020-09-14T11:27:27Z</time>
      </trkpt>
      <trkpt lat="45.11157" lon="2.60949">
        <ele>1098</ele>
        <time>2020-09-14T11:27:37Z</time>
      </trkpt>
      <trkpt lat="45.1116" lon="2.6096">
        <ele>1099</ele>
        <time>2020-09-14T11:27:45Z</time>
      </trkpt>
      <trkpt lat="45.1116" lon="2.60971">
        <ele>1098</ele>
        <time>2020-09-14T11:27:57Z</time>
      </trkpt>
      <trkpt lat="45.11164" lon="2.60982">
        <ele>1099</ele>
        <time>2020-09-14T11:28:05Z</time>
      </trkpt>
      <trkpt lat="45.11167" lon="2.60992">
        <ele>1102</ele>
        <time>2020-09-14T11:28:15Z</time>
      </trkpt>
      <trkpt lat="45.1117" lon="2.61002">
        <ele>1104</ele>
        <time>2020-09-14T11:28:25Z</time>
      </trkpt>
      <trkpt lat="45.11173" lon="2.61013">
        <ele>1106</ele>
        <time>2020-09-14T11:28:34Z</time>
      </trkpt>
      <trkpt lat="45.11179" lon="2.61021">
        <ele>1108</ele>
        <time>2020-09-14T11:28:42Z</time>
      </trkpt>
      <trkpt lat="45.11179" lon="2.61033">
        <ele>1112</ele>
        <time>2020-09-14T11:28:51Z</time>
      </trkpt>
      <trkpt lat="45.1118" lon="2.61045">
        <ele>1112</ele>
        <time>2020-09-14T11:28:59Z</time>
      </trkpt>
      <trkpt lat="45.11182" lon="2.61056">
        <ele>1117</ele>
        <time>2020-09-14T11:29:11Z</time>
      </trkpt>
      <trkpt lat="45.11182" lon="2.61068">
        <ele>1118</ele>
        <time>2020-09-14T11:29:19Z</time>
      </trkpt>
      <trkpt lat="45.11185" lon="2.6108">
        <ele>1117</ele>
        <time>2020-09-14T11:29:30Z</time>
      </trkpt>
      <trkpt lat="45.11187" lon="2.61091">
        <ele>1118</ele>
        <time>2020-09-14T11:29:43Z</time>
      </trkpt>
      <trkpt lat="45.11186" lon="2.61102">
        <ele>1119</ele>
        <time>2020-09-14T11:29:52Z</time>
      </trkpt>
      <trkpt lat="45.11188" lon="2.61112">
        <ele>1120</ele>
        <time>2020-09-14T11:30:01Z</time>
      </trkpt>
      <trkpt lat="45.11189" lon="2.61124">
        <ele>1122</ele>
        <time>2020-09-14T11:30:10Z</time>
      </trkpt>
      <trkpt lat="45.1119" lon="2.61136">
        <ele>1122</ele>
        <time>2020-09-14T11:30:21Z</time>
      </trkpt>
      <trkpt lat="45.11188" lon="2.61147">
        <ele>1123</ele>
        <time>2020-09-14T11:30:31Z</time>
      </trkpt>
      <trkpt lat="45.11191" lon="2.61159">
        <ele>1124</ele>
        <time>2020-09-14T11:30:43Z</time>
      </trkpt>
      <trkpt lat="45.11189" lon="2.6117">
        <ele>1124</ele>
        <time>2020-09-14T11:30:51Z</time>
      </trkpt>
      <trkpt lat="45.11194" lon="2.6118">
        <ele>1120</ele>
        <time>2020-09-14T11:30:58Z</time>
      </trkpt>
      <trkpt lat="45.11195" lon="2.61191">
        <ele>1120</ele>
        <time>2020-09-14T11:31:08Z</time>
      </trkpt>
      <trkpt lat="45.11195" lon="2.61203">
        <ele>1122</ele>
        <time>2020-09-14T11:31:19Z</time>
      </trkpt>
      <trkpt lat="45.11194" lon="2.61215">
        <ele>1124</ele>
        <time>2020-09-14T11:31:27Z</time>
      </trkpt>
      <trkpt lat="45.11197" lon="2.61227">
        <ele>1122</ele>
        <time>2020-09-14T11:31:39Z</time>
      </trkpt>
      <trkpt lat="45.112" lon="2.61236">
        <ele>1125</ele>
        <time>2020-09-14T11:31:47Z</time>
      </trkpt>
      <trkpt lat="45.11204" lon="2.61246">
        <ele>1125</ele>
        <time>2020-09-14T11:31:57Z</time>
      </trkpt>
      <trkpt lat="45.11209" lon="2.61256">
        <ele>1122</ele>
        <time>2020-09-14T11:32:06Z</time>
      </trkpt>
      <trkpt lat="45.11217" lon="2.61262">
        <ele>1121</ele>
        <time>2020-09-14T11:32:16Z</time>
      </trkpt>
      <trkpt lat="45.11221" lon="2.61271">
        <ele>1122</ele>
        <time>2020-09-14T11:32:26Z</time>
      </trkpt>
      <trkpt lat="45.11228" lon="2.61279">
        <ele>1124</ele>
        <time>2020-09-14T11:32:37Z</time>
      </trkpt>
      <trkpt lat="45.11234" lon="2.61288">
        <ele>1126</ele>
        <time>2020-09-14T11:32:47Z</time>
      </trkpt>
      <trkpt lat="45.11241" lon="2.61295">
        <ele>1127</ele>
        <time>2020-09-14T11:32:56Z</time>
      </trkpt>
      <trkpt lat="45.11247" lon="2.61304">
        <ele>1129</ele>
        <time>2020-09-14T11:33:07Z</time>
      </trkpt>
      <trkpt lat="45.11252" lon="2.61314">
        <ele>1129</ele>
        <time>2020-09-14T11:33:20Z</time>
      </trkpt>
      <trkpt lat="45.11258" lon="2.61323">
        <ele>1131</ele>
        <time>2020-09-14T11:33:32Z</time>
      </trkpt>
      <trkpt lat="45.11264" lon="2.61333">
        <ele>1132</ele>
        <time>2020-09-14T11:33:43Z</time>
      </trkpt>
      <trkpt lat="45.11265" lon="2.61344">
        <ele>1133</ele>
        <time>2020-09-14T11:33:55Z</time>
      </trkpt>
      <trkpt lat="45.1127" lon="2.61352">
        <ele>1134</ele>
        <time>2020-09-14T11:34:03Z</time>
      </trkpt>
      <trkpt lat="45.11273" lon="2.61362">
        <ele>1135</ele>
        <time>2020-09-14T11:34:10Z</time>
      </trkpt>
      <trkpt lat="45.11279" lon="2.61371">
        <ele>1139</ele>
        <time>2020-09-14T11:34:23Z</time>
      </trkpt>
      <trkpt lat="45.11281" lon="2.61383">
        <ele>1138</ele>
        <time>2020-09-14T11:34:31Z</time>
      </trkpt>
      <trkpt lat="45.11287" lon="2.61392">
        <ele>1140</ele>
        <time>2020-09-14T11:34:38Z</time>
      </trkpt>
      <trkpt lat="45.11288" lon="2.61403">
        <ele>1141</ele>
        <time>2020-09-14T11:34:51Z</time>
      </trkpt>
      <trkpt lat="45.11288" lon="2.61415">
        <ele>1141</ele>
        <time>2020-09-14T11:35:03Z</time>
      </trkpt>
      <trkpt lat="45.11288" lon="2.61427">
        <ele>1142</ele>
        <time>2020-09-14T11:35:12Z</time>
      </trkpt>
      <trkpt lat="45.11291" lon="2.61439">
        <ele>1141</ele>
        <time>2020-09-14T11:35:22Z</time>
      </trkpt>
      <trkpt lat="45.11293" lon="2.61451">
        <ele>1142</ele>
        <time>2020-09-14T11:35:33Z</time>
      </trkpt>
      <trkpt lat="45.11291" lon="2.61462">
        <ele>1144</ele>
        <time>2020-09-14T11:35:43Z</time>
      </trkpt>
      <trkpt lat="45.11293" lon="2.61474">
        <ele>1146</ele>
        <time>2020-09-14T11:35:54Z</time>
      </trkpt>
      <trkpt lat="45.11296" lon="2.61485">
        <ele>1148</ele>
        <time>2020-09-14T11:36:04Z</time>
      </trkpt>
      <trkpt lat="45.11301" lon="2.61494">
        <ele>1149</ele>
        <time>2020-09-14T11:36:12Z</time>
      </trkpt>
      <trkpt lat="45.11302" lon="2.61507">
        <ele>1151</ele>
        <time>2020-09-14T11:36:24Z</time>
      </trkpt>
      <trkpt lat="45.11304" lon="2.61517">
        <ele>1154</ele>
        <time>2020-09-14T11:36:34Z</time>
      </trkpt>
      <trkpt lat="45.11303" lon="2.61528">
        <ele>1153</ele>
        <time>2020-09-14T11:36:40Z</time>
      </trkpt>
      <trkpt lat="45.11308" lon="2.61538">
        <ele>1154</ele>
        <time>2020-09-14T11:36:48Z</time>
      </trkpt>
      <trkpt lat="45.1131" lon="2.61549">
        <ele>1154</ele>
        <time>2020-09-14T11:36:57Z</time>
      </trkpt>
      <trkpt lat="45.11312" lon="2.61562">
        <ele>1151</ele>
        <time>2020-09-14T11:37:04Z</time>
      </trkpt>
      <trkpt lat="45.11318" lon="2.6157">
        <ele>1152</ele>
        <time>2020-09-14T11:37:17Z</time>
      </trkpt>
      <trkpt lat="45.11326" lon="2.61573">
        <ele>1153</ele>
        <time>2020-09-14T11:37:26Z</time>
      </trkpt>
      <trkpt lat="45.1133" lon="2.61582">
        <ele>1156</ele>
        <time>2020-09-14T11:37:36Z</time>
      </trkpt>
      <trkpt lat="45.11333" lon="2.61592">
        <ele>1157</ele>
        <time>2020-09-14T11:37:44Z</time>
      </trkpt>
      <trkpt lat="45.11337" lon="2.61603">
        <ele>1156</ele>
        <time>2020-09-14T11:37:52Z</time>
      </trkpt>
      <trkpt lat="45.1134" lon="2.61615">
        <ele>1156</ele>
        <time>2020-09-14T11:38:01Z</time>
      </trkpt>
      <trkpt lat="45.11343" lon="2.61625">
        <ele>1160</ele>
        <time>2020-09-14T11:38:11Z</time>
      </trkpt>
      <trkpt lat="45.11345" lon="2.61637">
        <ele>1161</ele>
        <time>2020-09-14T11:38:19Z</time>
      </trkpt>
      <trkpt lat="45.11342" lon="2.61648">
        <ele>1164</ele>
        <time>2020-09-14T11:38:29Z</time>
      </trkpt>
      <trkpt lat="45.11344" lon="2.6166">
        <ele>1166</ele>
        <time>2020-09-14T11:38:39Z</time>
      </trkpt>
      <trkpt lat="45.11341" lon="2.61671">
        <ele>1166</ele>
        <time>2020-09-14T11:38:45Z</time>
      </trkpt>
      <trkpt lat="45.11338" lon="2.61683">
        <ele>1166</ele>
        <time>2020-09-14T11:38:53Z</time>
      </trkpt>
      <trkpt lat="45.11336" lon="2.61694">
        <ele>1168</ele>
        <time>2020-09-14T11:39:00Z</time>
      </trkpt>
      <trkpt lat="45.11336" lon="2.61705">
        <ele>1166</ele>
        <time>2020-09-14T11:39:08Z</time>
      </trkpt>
      <trkpt lat="45.11336" lon="2.61708">
        <ele>1165</ele>
        <time>2020-09-14T11:39:09Z</time>
      </trkpt>
      <trkpt lat="45.11336" lon="2.61708">
        <ele>1165</ele>
        <time>2020-09-14T11:39:09Z</time>
      </trkpt>
      <trkpt lat="45.11339" lon="2.61703">
        <ele>1167</ele>
        <time>2020-09-14T12:06:13Z</time>
      </trkpt>
      <trkpt lat="45.11336" lon="2.61715">
        <ele>1167</ele>
        <time>2020-09-14T12:06:23Z</time>
      </trkpt>
      <trkpt lat="45.11336" lon="2.61727">
        <ele>1170</ele>
        <time>2020-09-14T12:06:32Z</time>
      </trkpt>
      <trkpt lat="45.11336" lon="2.6174">
        <ele>1174</ele>
        <time>2020-09-14T12:06:44Z</time>
      </trkpt>
      <trkpt lat="45.11334" lon="2.61752">
        <ele>1178</ele>
        <time>2020-09-14T12:06:55Z</time>
      </trkpt>
      <trkpt lat="45.11334" lon="2.61764">
        <ele>1184</ele>
        <time>2020-09-14T12:07:12Z</time>
      </trkpt>
      <trkpt lat="45.11335" lon="2.61775">
        <ele>1185</ele>
        <time>2020-09-14T12:07:18Z</time>
      </trkpt>
      <trkpt lat="45.11334" lon="2.61787">
        <ele>1187</ele>
        <time>2020-09-14T12:07:29Z</time>
      </trkpt>
      <trkpt lat="45.11333" lon="2.61798">
        <ele>1190</ele>
        <time>2020-09-14T12:07:40Z</time>
      </trkpt>
      <trkpt lat="45.11332" lon="2.61809">
        <ele>1190</ele>
        <time>2020-09-14T12:07:49Z</time>
      </trkpt>
      <trkpt lat="45.11328" lon="2.61819">
        <ele>1192</ele>
        <time>2020-09-14T12:08:01Z</time>
      </trkpt>
      <trkpt lat="45.11332" lon="2.6183">
        <ele>1195</ele>
        <time>2020-09-14T12:08:10Z</time>
      </trkpt>
      <trkpt lat="45.11333" lon="2.61842">
        <ele>1192</ele>
        <time>2020-09-14T12:08:22Z</time>
      </trkpt>
      <trkpt lat="45.11335" lon="2.61855">
        <ele>1189</ele>
        <time>2020-09-14T12:08:34Z</time>
      </trkpt>
      <trkpt lat="45.11339" lon="2.61866">
        <ele>1190</ele>
        <time>2020-09-14T12:08:44Z</time>
      </trkpt>
      <trkpt lat="45.11341" lon="2.61877">
        <ele>1191</ele>
        <time>2020-09-14T12:08:57Z</time>
      </trkpt>
      <trkpt lat="45.11346" lon="2.61888">
        <ele>1192</ele>
        <time>2020-09-14T12:09:05Z</time>
      </trkpt>
      <trkpt lat="45.11343" lon="2.61899">
        <ele>1195</ele>
        <time>2020-09-14T12:09:18Z</time>
      </trkpt>
      <trkpt lat="45.11347" lon="2.61909">
        <ele>1195</ele>
        <time>2020-09-14T12:09:25Z</time>
      </trkpt>
      <trkpt lat="45.11345" lon="2.6192">
        <ele>1197</ele>
        <time>2020-09-14T12:09:34Z</time>
      </trkpt>
      <trkpt lat="45.11339" lon="2.61929">
        <ele>1194</ele>
        <time>2020-09-14T12:09:42Z</time>
      </trkpt>
      <trkpt lat="45.11338" lon="2.61941">
        <ele>1195</ele>
        <time>2020-09-14T12:09:54Z</time>
      </trkpt>
      <trkpt lat="45.11338" lon="2.61953">
        <ele>1196</ele>
        <time>2020-09-14T12:10:04Z</time>
      </trkpt>
      <trkpt lat="45.11339" lon="2.61957">
        <ele>1197</ele>
        <time>2020-09-14T12:10:07Z</time>
      </trkpt>
      <trkpt lat="45.11339" lon="2.61957">
        <ele>1197</ele>
        <time>2020-09-14T12:10:07Z</time>
      </trkpt>
      <trkpt lat="45.11339" lon="2.61962">
        <ele>1191</ele>
        <time>2020-09-14T12:25:00Z</time>
      </trkpt>
      <trkpt lat="45.11334" lon="2.61971">
        <ele>1192</ele>
        <time>2020-09-14T12:25:09Z</time>
      </trkpt>
      <trkpt lat="45.11331" lon="2.61982">
        <ele>1193</ele>
        <time>2020-09-14T12:25:19Z</time>
      </trkpt>
      <trkpt lat="45.11328" lon="2.61992">
        <ele>1194</ele>
        <time>2020-09-14T12:25:29Z</time>
      </trkpt>
      <trkpt lat="45.11321" lon="2.62001">
        <ele>1194</ele>
        <time>2020-09-14T12:25:37Z</time>
      </trkpt>
      <trkpt lat="45.1132" lon="2.62013">
        <ele>1196</ele>
        <time>2020-09-14T12:25:48Z</time>
      </trkpt>
      <trkpt lat="45.11317" lon="2.62024">
        <ele>1197</ele>
        <time>2020-09-14T12:25:58Z</time>
      </trkpt>
      <trkpt lat="45.1131" lon="2.62031">
        <ele>1200</ele>
        <time>2020-09-14T12:26:08Z</time>
      </trkpt>
      <trkpt lat="45.11308" lon="2.62043">
        <ele>1202</ele>
        <time>2020-09-14T12:26:21Z</time>
      </trkpt>
      <trkpt lat="45.11304" lon="2.62053">
        <ele>1205</ele>
        <time>2020-09-14T12:26:29Z</time>
      </trkpt>
      <trkpt lat="45.113" lon="2.62064">
        <ele>1205</ele>
        <time>2020-09-14T12:26:38Z</time>
      </trkpt>
      <trkpt lat="45.113" lon="2.62076">
        <ele>1205</ele>
        <time>2020-09-14T12:26:45Z</time>
      </trkpt>
      <trkpt lat="45.11299" lon="2.62089">
        <ele>1206</ele>
        <time>2020-09-14T12:26:58Z</time>
      </trkpt>
      <trkpt lat="45.11305" lon="2.62097">
        <ele>1208</ele>
        <time>2020-09-14T12:27:07Z</time>
      </trkpt>
      <trkpt lat="45.11308" lon="2.62109">
        <ele>1208</ele>
        <time>2020-09-14T12:27:17Z</time>
      </trkpt>
      <trkpt lat="45.11306" lon="2.62121">
        <ele>1207</ele>
        <time>2020-09-14T12:27:29Z</time>
      </trkpt>
      <trkpt lat="45.11308" lon="2.62132">
        <ele>1210</ele>
        <time>2020-09-14T12:27:42Z</time>
      </trkpt>
      <trkpt lat="45.11305" lon="2.62143">
        <ele>1210</ele>
        <time>2020-09-14T12:27:53Z</time>
      </trkpt>
      <trkpt lat="45.11302" lon="2.62154">
        <ele>1209</ele>
        <time>2020-09-14T12:28:01Z</time>
      </trkpt>
      <trkpt lat="45.11302" lon="2.62166">
        <ele>1212</ele>
        <time>2020-09-14T12:28:16Z</time>
      </trkpt>
      <trkpt lat="45.11302" lon="2.62179">
        <ele>1213</ele>
        <time>2020-09-14T12:28:24Z</time>
      </trkpt>
      <trkpt lat="45.11302" lon="2.62191">
        <ele>1213</ele>
        <time>2020-09-14T12:28:37Z</time>
      </trkpt>
      <trkpt lat="45.11303" lon="2.62203">
        <ele>1213</ele>
        <time>2020-09-14T12:28:48Z</time>
      </trkpt>
      <trkpt lat="45.11306" lon="2.62213">
        <ele>1214</ele>
        <time>2020-09-14T12:28:59Z</time>
      </trkpt>
      <trkpt lat="45.11309" lon="2.62225">
        <ele>1216</ele>
        <time>2020-09-14T12:29:06Z</time>
      </trkpt>
      <trkpt lat="45.11311" lon="2.62237">
        <ele>1219</ele>
        <time>2020-09-14T12:29:19Z</time>
      </trkpt>
      <trkpt lat="45.11313" lon="2.62249">
        <ele>1219</ele>
        <time>2020-09-14T12:29:28Z</time>
      </trkpt>
      <trkpt lat="45.11314" lon="2.62261">
        <ele>1221</ele>
        <time>2020-09-14T12:29:38Z</time>
      </trkpt>
      <trkpt lat="45.11315" lon="2.62273">
        <ele>1218</ele>
        <time>2020-09-14T12:29:50Z</time>
      </trkpt>
      <trkpt lat="45.11318" lon="2.62283">
        <ele>1220</ele>
        <time>2020-09-14T12:30:02Z</time>
      </trkpt>
      <trkpt lat="45.1132" lon="2.62294">
        <ele>1221</ele>
        <time>2020-09-14T12:30:11Z</time>
      </trkpt>
      <trkpt lat="45.11321" lon="2.62306">
        <ele>1223</ele>
        <time>2020-09-14T12:30:22Z</time>
      </trkpt>
      <trkpt lat="45.11319" lon="2.62317">
        <ele>1224</ele>
        <time>2020-09-14T12:30:28Z</time>
      </trkpt>
      <trkpt lat="45.11324" lon="2.62327">
        <ele>1223</ele>
        <time>2020-09-14T12:30:38Z</time>
      </trkpt>
      <trkpt lat="45.11328" lon="2.62339">
        <ele>1225</ele>
        <time>2020-09-14T12:30:51Z</time>
      </trkpt>
      <trkpt lat="45.11335" lon="2.62347">
        <ele>1227</ele>
        <time>2020-09-14T12:30:59Z</time>
      </trkpt>
      <trkpt lat="45.11338" lon="2.62358">
        <ele>1225</ele>
        <time>2020-09-14T12:31:10Z</time>
      </trkpt>
      <trkpt lat="45.11342" lon="2.62369">
        <ele>1229</ele>
        <time>2020-09-14T12:31:21Z</time>
      </trkpt>
      <trkpt lat="45.11345" lon="2.6238">
        <ele>1230</ele>
        <time>2020-09-14T12:31:32Z</time>
      </trkpt>
      <trkpt lat="45.1135" lon="2.62389">
        <ele>1231</ele>
        <time>2020-09-14T12:31:40Z</time>
      </trkpt>
      <trkpt lat="45.11353" lon="2.62399">
        <ele>1234</ele>
        <time>2020-09-14T12:31:53Z</time>
      </trkpt>
      <trkpt lat="45.1136" lon="2.62408">
        <ele>1233</ele>
        <time>2020-09-14T12:31:59Z</time>
      </trkpt>
      <trkpt lat="45.11366" lon="2.62414">
        <ele>1233</ele>
        <time>2020-09-14T12:32:04Z</time>
      </trkpt>
      <trkpt lat="45.11366" lon="2.62426">
        <ele>1233</ele>
        <time>2020-09-14T12:32:18Z</time>
      </trkpt>
      <trkpt lat="45.1137" lon="2.62436">
        <ele>1236</ele>
        <time>2020-09-14T12:32:30Z</time>
      </trkpt>
      <trkpt lat="45.11374" lon="2.62446">
        <ele>1237</ele>
        <time>2020-09-14T12:32:38Z</time>
      </trkpt>
      <trkpt lat="45.11377" lon="2.62457">
        <ele>1238</ele>
        <time>2020-09-14T12:32:49Z</time>
      </trkpt>
      <trkpt lat="45.11376" lon="2.6247">
        <ele>1242</ele>
        <time>2020-09-14T12:33:06Z</time>
      </trkpt>
      <trkpt lat="45.11383" lon="2.62478">
        <ele>1244</ele>
        <time>2020-09-14T12:33:15Z</time>
      </trkpt>
      <trkpt lat="45.1139" lon="2.62484">
        <ele>1245</ele>
        <time>2020-09-14T12:33:20Z</time>
      </trkpt>
      <trkpt lat="45.11397" lon="2.62493">
        <ele>1245</ele>
        <time>2020-09-14T12:33:35Z</time>
      </trkpt>
      <trkpt lat="45.11402" lon="2.62501">
        <ele>1246</ele>
        <time>2020-09-14T12:33:42Z</time>
      </trkpt>
      <trkpt lat="45.11408" lon="2.6251">
        <ele>1246</ele>
        <time>2020-09-14T12:33:48Z</time>
      </trkpt>
      <trkpt lat="45.11414" lon="2.6252">
        <ele>1242</ele>
        <time>2020-09-14T12:34:02Z</time>
      </trkpt>
      <trkpt lat="45.11419" lon="2.62529">
        <ele>1243</ele>
        <time>2020-09-14T12:34:12Z</time>
      </trkpt>
      <trkpt lat="45.11424" lon="2.62538">
        <ele>1242</ele>
        <time>2020-09-14T12:34:21Z</time>
      </trkpt>
      <trkpt lat="45.11426" lon="2.6255">
        <ele>1245</ele>
        <time>2020-09-14T12:34:30Z</time>
      </trkpt>
      <trkpt lat="45.11426" lon="2.62562">
        <ele>1245</ele>
        <time>2020-09-14T12:34:41Z</time>
      </trkpt>
      <trkpt lat="45.11431" lon="2.62573">
        <ele>1248</ele>
        <time>2020-09-14T12:34:52Z</time>
      </trkpt>
      <trkpt lat="45.11433" lon="2.62584">
        <ele>1249</ele>
        <time>2020-09-14T12:35:05Z</time>
      </trkpt>
      <trkpt lat="45.11437" lon="2.62595">
        <ele>1248</ele>
        <time>2020-09-14T12:35:16Z</time>
      </trkpt>
      <trkpt lat="45.1144" lon="2.62607">
        <ele>1249</ele>
        <time>2020-09-14T12:35:25Z</time>
      </trkpt>
      <trkpt lat="45.11446" lon="2.62612">
        <ele>1251</ele>
        <time>2020-09-14T12:35:32Z</time>
      </trkpt>
      <trkpt lat="45.11455" lon="2.6261">
        <ele>1251</ele>
        <time>2020-09-14T12:35:39Z</time>
      </trkpt>
      <trkpt lat="45.11463" lon="2.62614">
        <ele>1253</ele>
        <time>2020-09-14T12:35:49Z</time>
      </trkpt>
      <trkpt lat="45.1147" lon="2.62619">
        <ele>1252</ele>
        <time>2020-09-14T12:35:58Z</time>
      </trkpt>
      <trkpt lat="45.11477" lon="2.62627">
        <ele>1251</ele>
        <time>2020-09-14T12:36:07Z</time>
      </trkpt>
      <trkpt lat="45.11483" lon="2.62635">
        <ele>1253</ele>
        <time>2020-09-14T12:36:17Z</time>
      </trkpt>
      <trkpt lat="45.11488" lon="2.62643">
        <ele>1254</ele>
        <time>2020-09-14T12:36:28Z</time>
      </trkpt>
      <trkpt lat="45.11495" lon="2.62651">
        <ele>1255</ele>
        <time>2020-09-14T12:36:37Z</time>
      </trkpt>
      <trkpt lat="45.115" lon="2.6266">
        <ele>1254</ele>
        <time>2020-09-14T12:36:47Z</time>
      </trkpt>
      <trkpt lat="45.11507" lon="2.62667">
        <ele>1257</ele>
        <time>2020-09-14T12:36:54Z</time>
      </trkpt>
      <trkpt lat="45.11514" lon="2.6267">
        <ele>1257</ele>
        <time>2020-09-14T12:37:02Z</time>
      </trkpt>
      <trkpt lat="45.11522" lon="2.62672">
        <ele>1259</ele>
        <time>2020-09-14T12:37:10Z</time>
      </trkpt>
      <trkpt lat="45.11531" lon="2.62674">
        <ele>1260</ele>
        <time>2020-09-14T12:37:18Z</time>
      </trkpt>
      <trkpt lat="45.11539" lon="2.62671">
        <ele>1261</ele>
        <time>2020-09-14T12:37:28Z</time>
      </trkpt>
      <trkpt lat="45.11542" lon="2.6266">
        <ele>1261</ele>
        <time>2020-09-14T12:37:39Z</time>
      </trkpt>
      <trkpt lat="45.11546" lon="2.62649">
        <ele>1259</ele>
        <time>2020-09-14T12:37:51Z</time>
      </trkpt>
      <trkpt lat="45.11548" lon="2.62644">
        <ele>1258</ele>
        <time>2020-09-14T12:37:57Z</time>
      </trkpt>
      <trkpt lat="45.11548" lon="2.62644">
        <ele>1258</ele>
        <time>2020-09-14T12:37:58Z</time>
      </trkpt>
      <trkpt lat="45.11546" lon="2.62637">
        <ele>1256</ele>
        <time>2020-09-14T12:56:00Z</time>
      </trkpt>
      <trkpt lat="45.11553" lon="2.62641">
        <ele>1254</ele>
        <time>2020-09-14T12:56:09Z</time>
      </trkpt>
      <trkpt lat="45.11561" lon="2.62642">
        <ele>1257</ele>
        <time>2020-09-14T12:56:19Z</time>
      </trkpt>
      <trkpt lat="45.11569" lon="2.62636">
        <ele>1261</ele>
        <time>2020-09-14T12:56:29Z</time>
      </trkpt>
      <trkpt lat="45.11576" lon="2.62631">
        <ele>1260</ele>
        <time>2020-09-14T12:56:47Z</time>
      </trkpt>
      <trkpt lat="45.11584" lon="2.62627">
        <ele>1260</ele>
        <time>2020-09-14T12:56:57Z</time>
      </trkpt>
      <trkpt lat="45.11591" lon="2.62621">
        <ele>1259</ele>
        <time>2020-09-14T12:57:07Z</time>
      </trkpt>
      <trkpt lat="45.116" lon="2.62617">
        <ele>1261</ele>
        <time>2020-09-14T12:57:17Z</time>
      </trkpt>
      <trkpt lat="45.11607" lon="2.62613">
        <ele>1262</ele>
        <time>2020-09-14T12:57:28Z</time>
      </trkpt>
      <trkpt lat="45.11615" lon="2.62606">
        <ele>1262</ele>
        <time>2020-09-14T12:57:39Z</time>
      </trkpt>
      <trkpt lat="45.11623" lon="2.62603">
        <ele>1262</ele>
        <time>2020-09-14T12:57:49Z</time>
      </trkpt>
      <trkpt lat="45.11616" lon="2.62609">
        <ele>1261</ele>
        <time>2020-09-14T12:58:16Z</time>
      </trkpt>
      <trkpt lat="45.11608" lon="2.62613">
        <ele>1262</ele>
        <time>2020-09-14T12:58:23Z</time>
      </trkpt>
      <trkpt lat="45.116" lon="2.62618">
        <ele>1264</ele>
        <time>2020-09-14T12:58:32Z</time>
      </trkpt>
      <trkpt lat="45.11592" lon="2.62622">
        <ele>1263</ele>
        <time>2020-09-14T12:58:39Z</time>
      </trkpt>
      <trkpt lat="45.11584" lon="2.62627">
        <ele>1263</ele>
        <time>2020-09-14T12:58:46Z</time>
      </trkpt>
      <trkpt lat="45.11577" lon="2.62631">
        <ele>1263</ele>
        <time>2020-09-14T12:58:53Z</time>
      </trkpt>
      <trkpt lat="45.11569" lon="2.62636">
        <ele>1264</ele>
        <time>2020-09-14T12:59:05Z</time>
      </trkpt>
      <trkpt lat="45.1156" lon="2.62638">
        <ele>1262</ele>
        <time>2020-09-14T12:59:10Z</time>
      </trkpt>
      <trkpt lat="45.11552" lon="2.62639">
        <ele>1262</ele>
        <time>2020-09-14T12:59:15Z</time>
      </trkpt>
      <trkpt lat="45.11545" lon="2.62642">
        <ele>1262</ele>
        <time>2020-09-14T12:59:21Z</time>
      </trkpt>
      <trkpt lat="45.11544" lon="2.62653">
        <ele>1258</ele>
        <time>2020-09-14T12:59:29Z</time>
      </trkpt>
      <trkpt lat="45.11543" lon="2.62666">
        <ele>1256</ele>
        <time>2020-09-14T12:59:40Z</time>
      </trkpt>
      <trkpt lat="45.11547" lon="2.62675">
        <ele>1258</ele>
        <time>2020-09-14T12:59:51Z</time>
      </trkpt>
      <trkpt lat="45.11547" lon="2.6268">
        <ele>1258</ele>
        <time>2020-09-14T13:00:01Z</time>
      </trkpt>
      <trkpt lat="45.11547" lon="2.6268">
        <ele>1258</ele>
        <time>2020-09-14T13:00:01Z</time>
      </trkpt>
      <trkpt lat="45.11543" lon="2.62685">
        <ele>1261</ele>
        <time>2020-09-14T13:05:55Z</time>
      </trkpt>
      <trkpt lat="45.1154" lon="2.62673">
        <ele>1257</ele>
        <time>2020-09-14T13:06:08Z</time>
      </trkpt>
      <trkpt lat="45.11533" lon="2.62678">
        <ele>1258</ele>
        <time>2020-09-14T13:06:21Z</time>
      </trkpt>
      <trkpt lat="45.11525" lon="2.62672">
        <ele>1259</ele>
        <time>2020-09-14T13:06:32Z</time>
      </trkpt>
      <trkpt lat="45.11517" lon="2.62672">
        <ele>1260</ele>
        <time>2020-09-14T13:06:39Z</time>
      </trkpt>
      <trkpt lat="45.1151" lon="2.62675">
        <ele>1261</ele>
        <time>2020-09-14T13:06:44Z</time>
      </trkpt>
      <trkpt lat="45.11502" lon="2.62677">
        <ele>1262</ele>
        <time>2020-09-14T13:06:52Z</time>
      </trkpt>
      <trkpt lat="45.11493" lon="2.62678">
        <ele>1261</ele>
        <time>2020-09-14T13:06:57Z</time>
      </trkpt>
      <trkpt lat="45.11484" lon="2.62678">
        <ele>1260</ele>
        <time>2020-09-14T13:07:06Z</time>
      </trkpt>
      <trkpt lat="45.11476" lon="2.62675">
        <ele>1262</ele>
        <time>2020-09-14T13:07:17Z</time>
      </trkpt>
      <trkpt lat="45.11468" lon="2.62677">
        <ele>1255</ele>
        <time>2020-09-14T13:07:28Z</time>
      </trkpt>
      <trkpt lat="45.11474" lon="2.62685">
        <ele>1254</ele>
        <time>2020-09-14T13:07:40Z</time>
      </trkpt>
      <trkpt lat="45.1148" lon="2.62691">
        <ele>1256</ele>
        <time>2020-09-14T13:07:55Z</time>
      </trkpt>
      <trkpt lat="45.11485" lon="2.62698">
        <ele>1258</ele>
        <time>2020-09-14T13:08:08Z</time>
      </trkpt>
      <trkpt lat="45.1149" lon="2.62708">
        <ele>1262</ele>
        <time>2020-09-14T13:08:17Z</time>
      </trkpt>
      <trkpt lat="45.11495" lon="2.62716">
        <ele>1266</ele>
        <time>2020-09-14T13:08:30Z</time>
      </trkpt>
      <trkpt lat="45.11504" lon="2.62717">
        <ele>1273</ele>
        <time>2020-09-14T13:08:54Z</time>
      </trkpt>
      <trkpt lat="45.11511" lon="2.62721">
        <ele>1275</ele>
        <time>2020-09-14T13:09:04Z</time>
      </trkpt>
      <trkpt lat="45.11518" lon="2.62727">
        <ele>1275</ele>
        <time>2020-09-14T13:09:21Z</time>
      </trkpt>
      <trkpt lat="45.11523" lon="2.62737">
        <ele>1275</ele>
        <time>2020-09-14T13:09:33Z</time>
      </trkpt>
      <trkpt lat="45.11523" lon="2.62747">
        <ele>1279</ele>
        <time>2020-09-14T13:09:52Z</time>
      </trkpt>
      <trkpt lat="45.11517" lon="2.62754">
        <ele>1277</ele>
        <time>2020-09-14T13:09:57Z</time>
      </trkpt>
      <trkpt lat="45.11523" lon="2.62763">
        <ele>1278</ele>
        <time>2020-09-14T13:10:25Z</time>
      </trkpt>
      <trkpt lat="45.1153" lon="2.62767">
        <ele>1278</ele>
        <time>2020-09-14T13:10:33Z</time>
      </trkpt>
      <trkpt lat="45.11538" lon="2.62769">
        <ele>1281</ele>
        <time>2020-09-14T13:10:49Z</time>
      </trkpt>
      <trkpt lat="45.11546" lon="2.62768">
        <ele>1285</ele>
        <time>2020-09-14T13:10:57Z</time>
      </trkpt>
      <trkpt lat="45.11551" lon="2.62777">
        <ele>1286</ele>
        <time>2020-09-14T13:11:08Z</time>
      </trkpt>
      <trkpt lat="45.11554" lon="2.62789">
        <ele>1287</ele>
        <time>2020-09-14T13:11:24Z</time>
      </trkpt>
      <trkpt lat="45.1156" lon="2.62796">
        <ele>1288</ele>
        <time>2020-09-14T13:11:38Z</time>
      </trkpt>
      <trkpt lat="45.11566" lon="2.62805">
        <ele>1289</ele>
        <time>2020-09-14T13:11:53Z</time>
      </trkpt>
      <trkpt lat="45.11567" lon="2.62816">
        <ele>1291</ele>
        <time>2020-09-14T13:12:15Z</time>
      </trkpt>
      <trkpt lat="45.11567" lon="2.62818">
        <ele>1291</ele>
        <time>2020-09-14T13:12:18Z</time>
      </trkpt>
      <trkpt lat="45.11567" lon="2.62818">
        <ele>1291</ele>
        <time>2020-09-14T13:12:18Z</time>
      </trkpt>
      <trkpt lat="45.11563" lon="2.62825">
        <ele>1294</ele>
        <time>2020-09-14T13:13:02Z</time>
      </trkpt>
      <trkpt lat="45.11556" lon="2.62831">
        <ele>1296</ele>
        <time>2020-09-14T13:13:14Z</time>
      </trkpt>
      <trkpt lat="45.1155" lon="2.6284">
        <ele>1298</ele>
        <time>2020-09-14T13:13:23Z</time>
      </trkpt>
      <trkpt lat="45.11546" lon="2.6285">
        <ele>1298</ele>
        <time>2020-09-14T13:13:40Z</time>
      </trkpt>
      <trkpt lat="45.11545" lon="2.62862">
        <ele>1301</ele>
        <time>2020-09-14T13:13:56Z</time>
      </trkpt>
      <trkpt lat="45.11546" lon="2.62872">
        <ele>1305</ele>
        <time>2020-09-14T13:14:14Z</time>
      </trkpt>
      <trkpt lat="45.11546" lon="2.62884">
        <ele>1306</ele>
        <time>2020-09-14T13:14:23Z</time>
      </trkpt>
      <trkpt lat="45.11544" lon="2.62895">
        <ele>1305</ele>
        <time>2020-09-14T13:14:33Z</time>
      </trkpt>
      <trkpt lat="45.11543" lon="2.62907">
        <ele>1310</ele>
        <time>2020-09-14T13:14:42Z</time>
      </trkpt>
      <trkpt lat="45.11546" lon="2.62918">
        <ele>1306</ele>
        <time>2020-09-14T13:14:57Z</time>
      </trkpt>
      <trkpt lat="45.11554" lon="2.62923">
        <ele>1308</ele>
        <time>2020-09-14T13:15:06Z</time>
      </trkpt>
      <trkpt lat="45.11556" lon="2.62924">
        <ele>1307</ele>
        <time>2020-09-14T13:15:08Z</time>
      </trkpt>
      <trkpt lat="45.11556" lon="2.62924">
        <ele>1307</ele>
        <time>2020-09-14T13:15:08Z</time>
      </trkpt>
      <trkpt lat="45.11558" lon="2.6293">
        <ele>1309</ele>
        <time>2020-09-14T13:15:15Z</time>
      </trkpt>
      <trkpt lat="45.11558" lon="2.62931">
        <ele>1307</ele>
        <time>2020-09-14T13:15:22Z</time>
      </trkpt>
      <trkpt lat="45.11558" lon="2.62931">
        <ele>1307</ele>
        <time>2020-09-14T13:15:22Z</time>
      </trkpt>
      <trkpt lat="45.11554" lon="2.6293">
        <ele>1306</ele>
        <time>2020-09-14T13:15:43Z</time>
      </trkpt>
      <trkpt lat="45.11558" lon="2.6294">
        <ele>1305</ele>
        <time>2020-09-14T13:15:54Z</time>
      </trkpt>
      <trkpt lat="45.11561" lon="2.62945">
        <ele>1306</ele>
        <time>2020-09-14T13:15:59Z</time>
      </trkpt>
      <trkpt lat="45.11561" lon="2.62945">
        <ele>1306</ele>
        <time>2020-09-14T13:15:59Z</time>
      </trkpt>
      <trkpt lat="45.11561" lon="2.62945">
        <ele>1306</ele>
        <time>2020-09-14T13:16:13Z</time>
      </trkpt>
      <trkpt lat="45.11565" lon="2.62956">
        <ele>1307</ele>
        <time>2020-09-14T13:16:23Z</time>
      </trkpt>
      <trkpt lat="45.11572" lon="2.62956">
        <ele>1310</ele>
        <time>2020-09-14T13:16:35Z</time>
      </trkpt>
      <trkpt lat="45.11572" lon="2.62956">
        <ele>1310</ele>
        <time>2020-09-14T13:16:35Z</time>
      </trkpt>
    </trkseg>
  </trk>
</gpx>